Time;durP1;ratioP1;P1;durP2;ratioP2;P2;SDS_P1;SDS_P2;PMS_P1;PMS_P2;Temp;Humidity;BMP_temperature;BMP_pressure;BME280_temperature;BME280_humidity;BME280_pressure;Samples;Min_cycle;Max_cycle;Signal;HPM_P1;HPM_P2
2022/06/21 00:00:53;;;;;;;0.80;0.80;;;22.60;95.20;;;;;;5021567;28;20456;-80
2022/06/21 00:03:25;;;;;;;2.00;0.70;;;22.60;99.90;;;;;;5024161;28;20453;-79
2022/06/21 00:05:55;;;;;;;1.13;1.03;;;22.60;95.60;;;;;;5024864;28;20451;-78
2022/06/21 00:08:25;;;;;;;0.90;0.90;;;22.60;95.00;;;;;;5019888;28;20452;-79
2022/06/21 00:10:54;;;;;;;1.10;0.70;;;22.70;95.10;;;;;;5016943;28;20478;-78
2022/06/21 00:13:26;;;;;;;1.17;0.93;;;22.70;95.20;;;;;;5015019;28;20451;-79
2022/06/21 00:15:56;;;;;;;1.00;0.90;;;22.60;99.90;;;;;;5019956;28;20460;-79
2022/06/21 00:18:28;;;;;;;1.20;1.20;;;22.60;94.40;;;;;;5026041;28;20477;-80
2022/06/21 00:20:56;;;;;;;0.93;0.90;;;22.70;95.60;;;;;;5025971;28;20493;-80
2022/06/21 00:23:27;;;;;;;1.87;0.80;;;22.70;96.70;;;;;;5028113;28;20447;-79
2022/06/21 00:25:56;;;;;;;2.40;1.10;;;22.70;95.40;;;;;;5015971;28;20452;-78
2022/06/21 00:28:25;;;;;;;1.27;0.97;;;22.60;97.10;;;;;;5022411;28;20539;-79
2022/06/21 00:30:55;;;;;;;0.80;0.80;;;22.60;95.20;;;;;;5020891;28;20477;-79
2022/06/21 00:33:26;;;;;;;0.70;0.70;;;22.60;95.10;;;;;;5020534;28;20539;-79
2022/06/21 00:35:57;;;;;;;0.90;0.90;;;22.60;96.10;;;;;;5022408;28;20457;-79
2022/06/21 00:38:29;;;;;;;1.43;0.80;;;22.60;96.70;;;;;;5022162;28;20531;-79
2022/06/21 00:40:58;;;;;;;2.40;1.53;;;22.60;96.20;;;;;;5023948;28;20531;-79
2022/06/21 00:43:30;;;;;;;0.93;0.83;;;22.60;96.00;;;;;;5026133;28;20494;-79
2022/06/21 00:46:01;;;;;;;1.00;1.00;;;22.60;96.20;;;;;;5020293;28;20546;-78
2022/06/21 00:48:37;;;;;;;1.03;0.80;;;22.60;97.70;;;;;;5024538;28;20471;-80
2022/06/21 00:51:12;;;;;;;0.90;0.90;;;22.50;97.10;;;;;;5022684;28;22604;-79
2022/06/21 00:53:44;;;;;;;0.97;0.80;;;22.60;97.40;;;;;;5021167;28;20486;-79
2022/06/21 00:56:18;;;;;;;1.47;0.90;;;22.60;98.10;;;;;;5020473;28;20472;-79
2022/06/21 00:58:46;;;;;;;1.20;1.00;;;22.60;97.60;;;;;;5022094;28;20460;-79
2022/06/21 01:01:20;;;;;;;1.17;0.87;;;22.60;98.30;;;;;;5020856;28;20457;-79
2022/06/21 01:03:56;;;;;;;0.80;0.80;;;22.60;98.10;;;;;;5019363;28;20455;-79
2022/06/21 01:06:28;;;;;;;0.90;0.90;;;22.60;98.00;;;;;;5020308;28;20471;-79
2022/06/21 01:09:01;;;;;;;0.90;0.90;;;22.60;97.70;;;;;;5022833;28;20470;-78
2022/06/21 01:11:34;;;;;;;1.27;0.80;;;22.60;98.30;;;;;;5022561;28;20506;-78
2022/06/21 01:14:03;;;;;;;1.17;1.10;;;22.60;98.00;;;;;;5022455;28;20454;-79
2022/06/21 01:16:34;;;;;;;1.00;0.90;;;22.60;98.70;;;;;;5024555;28;20467;-78
2022/06/21 01:19:13;;;;;;;4.10;1.87;;;22.60;97.90;;;;;;5023721;28;20450;-77
2022/06/21 01:21:45;;;;;;;1.37;0.80;;;22.60;98.30;;;;;;5023620;28;20444;-78
2022/06/21 01:24:18;;;;;;;1.33;0.90;;;22.60;97.60;;;;;;5025988;28;20613;-78
2022/06/21 01:26:53;;;;;;;1.43;0.80;;;22.50;98.00;;;;;;5027258;28;20475;-77
2022/06/21 01:29:26;;;;;;;1.00;1.00;;;22.50;97.50;;;;;;5025355;28;20506;-78
2022/06/21 01:31:56;;;;;;;1.00;0.90;;;22.40;97.20;;;;;;5025072;28;20484;-78
2022/06/21 01:34:27;;;;;;;2.03;1.00;;;22.50;97.60;;;;;;5027669;28;20458;-78
2022/06/21 01:37:06;;;;;;;0.90;0.90;;;22.40;98.20;;;;;;5023455;28;20873;-77
2022/06/21 01:39:41;;;;;;;0.93;0.93;;;22.40;98.00;;;;;;5024013;28;20535;-78
2022/06/21 01:42:15;;;;;;;1.17;1.00;;;22.40;97.50;;;;;;5016661;28;20454;-78
2022/06/21 01:44:48;;;;;;;1.07;1.07;;;22.40;97.60;;;;;;5029437;28;21276;-78
2022/06/21 01:47:23;;;;;;;1.10;1.00;;;22.30;98.00;;;;;;5024742;28;20487;-79
2022/06/21 01:49:56;;;;;;;0.90;0.80;;;22.30;97.70;;;;;;5027512;28;20473;-78
2022/06/21 01:52:32;;;;;;;0.90;0.80;;;22.30;97.50;;;;;;5026116;28;20484;-79
2022/06/21 01:55:03;;;;;;;0.80;0.80;;;22.30;97.80;;;;;;5024464;28;20456;-79
2022/06/21 01:57:33;;;;;;;1.30;1.00;;;22.20;97.90;;;;;;5025106;28;20484;-78
2022/06/21 02:00:04;;;;;;;1.20;1.00;;;22.20;97.00;;;;;;5025554;28;20459;-78
2022/06/21 02:02:38;;;;;;;1.30;0.87;;;22.20;96.70;;;;;;5018169;28;20449;-78
2022/06/21 02:05:12;;;;;;;0.97;0.80;;;22.20;96.20;;;;;;5021961;28;20456;-79
2022/06/21 02:07:46;;;;;;;1.20;1.10;;;22.10;96.00;;;;;;5024992;28;20472;-79
2022/06/21 02:10:21;;;;;;;1.70;1.00;;;22.20;95.10;;;;;;5026583;28;20457;-78
2022/06/21 02:12:53;;;;;;;0.90;0.90;;;22.20;95.70;;;;;;5021856;28;20541;-78
2022/06/21 02:15:30;;;;;;;1.00;1.00;;;22.20;96.10;;;;;;5022530;28;20468;-78
2022/06/21 02:18:00;;;;;;;1.43;1.00;;;22.10;94.10;;;;;;5021192;28;20476;-78
2022/06/21 02:20:35;;;;;;;1.10;1.00;;;22.10;99.90;;;;;;5020083;28;20479;-78
2022/06/21 02:23:05;;;;;;;0.83;0.83;;;22.00;94.40;;;;;;5025047;28;20456;-79
2022/06/21 02:25:34;;;;;;;0.90;0.90;;;22.00;94.30;;;;;;5025401;28;20452;-78
2022/06/21 02:28:05;;;;;;;1.77;1.20;;;22.00;94.30;;;;;;5022754;28;20487;-78
2022/06/21 02:30:36;;;;;;;1.37;1.30;;;22.10;93.40;;;;;;5023638;28;20456;-79
2022/06/21 02:33:07;;;;;;;1.27;0.87;;;22.00;92.70;;;;;;5023133;28;20524;-78
2022/06/21 02:35:40;;;;;;;1.50;1.00;;;22.00;93.40;;;;;;5025716;28;20518;-78
2022/06/21 02:38:14;;;;;;;1.43;0.97;;;22.00;92.70;;;;;;5023431;28;20456;-78
2022/06/21 02:40:46;;;;;;;1.00;1.00;;;22.00;99.90;;;;;;5019175;28;20463;-78
2022/06/21 02:43:19;;;;;;;2.50;1.10;;;21.90;99.90;;;;;;5020189;28;20467;-78
2022/06/21 02:45:51;;;;;;;1.07;0.97;;;21.90;93.40;;;;;;5020754;28;20483;-80
2022/06/21 02:48:26;;;;;;;1.00;0.90;;;21.90;92.30;;;;;;5024658;28;20448;-77
2022/06/21 02:50:59;;;;;;;1.00;0.90;;;21.90;92.40;;;;;;5025700;28;20460;-78
2022/06/21 02:53:31;;;;;;;0.80;0.80;;;21.90;91.80;;;;;;5020675;28;20488;-78
2022/06/21 02:56:05;;;;;;;0.90;0.90;;;21.90;91.40;;;;;;5024282;28;20845;-79
2022/06/21 02:58:39;;;;;;;0.80;0.80;;;21.90;92.00;;;;;;5024200;28;20646;-79
2022/06/21 03:01:15;;;;;;;1.30;1.20;;;21.80;92.30;;;;;;5023010;28;20517;-79
2022/06/21 03:03:45;;;;;;;0.97;0.97;;;21.90;92.40;;;;;;5023633;28;20470;-79
2022/06/21 03:06:17;;;;;;;0.97;0.90;;;22.20;94.30;;;;;;5023282;28;20484;-79
2022/06/21 03:08:52;;;;;;;1.13;1.00;;;21.80;92.90;;;;;;5023424;28;20834;-79
2022/06/21 03:11:22;;;;;;;1.63;1.00;;;21.70;92.60;;;;;;5023294;28;20459;-80
2022/06/21 03:13:52;;;;;;;0.83;0.80;;;21.70;92.70;;;;;;5022259;28;20964;-79
2022/06/21 03:16:21;;;;;;;1.20;1.10;;;21.70;92.80;;;;;;5024473;28;20494;-80
2022/06/21 03:18:53;;;;;;;1.13;0.90;;;21.70;93.00;;;;;;5025163;28;20457;-80
2022/06/21 03:21:27;;;;;;;1.30;1.20;;;21.70;93.10;;;;;;5025660;28;20480;-80
2022/06/21 03:23:58;;;;;;;1.30;0.90;;;21.70;92.40;;;;;;5023561;28;20474;-79
2022/06/21 03:26:27;;;;;;;1.10;1.00;;;21.60;91.80;;;;;;5020639;28;20472;-79
2022/06/21 03:28:57;;;;;;;1.60;1.23;;;21.60;91.20;;;;;;5022132;28;20468;-80
2022/06/21 03:31:31;;;;;;;1.43;0.90;;;21.60;92.20;;;;;;5023858;28;20594;-80
2022/06/21 03:34:03;;;;;;;1.53;0.90;;;21.50;91.40;;;;;;5025111;28;20523;-79
2022/06/21 03:36:32;;;;;;;1.43;0.87;;;21.50;90.80;;;;;;5021246;28;20480;-79
2022/06/21 03:39:03;;;;;;;0.97;0.87;;;21.50;91.70;;;;;;5025316;28;20442;-79
2022/06/21 03:41:43;;;;;;;1.13;0.93;;;21.50;91.30;;;;;;5024338;28;20880;-80
2022/06/21 03:44:22;;;;;;;1.17;1.00;;;21.50;91.90;;;;;;5023459;28;20627;-79
2022/06/21 03:46:55;;;;;;;1.20;1.10;;;21.50;89.10;;;;;;5023060;28;20470;-79
2022/06/21 03:49:32;;;;;;;1.27;1.00;;;21.50;85.70;;;;;;5024552;28;20448;-79
2022/06/21 03:52:04;;;;;;;1.03;0.97;;;21.40;84.40;;;;;;5023639;28;20479;-80
2022/06/21 03:54:37;;;;;;;0.90;0.90;;;21.40;82.20;;;;;;5020084;28;20449;-80
2022/06/21 03:57:13;;;;;;;1.00;1.00;;;21.40;83.40;;;;;;5024947;28;20464;-79
2022/06/21 03:59:48;;;;;;;2.57;0.83;;;21.40;82.60;;;;;;5017520;28;20493;-79
2022/06/21 04:02:25;;;;;;;0.97;0.83;;;21.40;82.30;;;;;;5019046;28;20823;-79
2022/06/21 04:05:01;;;;;;;0.80;0.80;;;21.40;83.30;;;;;;5022962;28;20452;-79
2022/06/21 04:07:34;;;;;;;0.90;0.90;;;21.40;83.70;;;;;;5022723;28;20479;-79
2022/06/21 04:10:10;;;;;;;1.13;1.00;;;21.50;84.40;;;;;;5022930;28;20460;-79
2022/06/21 04:12:45;;;;;;;1.67;1.00;;;21.40;84.70;;;;;;5019046;28;20567;-80
2022/06/21 04:15:20;;;;;;;1.60;1.10;;;21.50;82.70;;;;;;5018206;28;20472;-79
2022/06/21 04:17:54;;;;;;;1.73;0.90;;;21.40;82.30;;;;;;5021856;28;20476;-78
2022/06/21 04:20:28;;;;;;;1.70;0.77;;;21.50;80.30;;;;;;5023851;28;20471;-79
2022/06/21 04:23:00;;;;;;;1.40;0.90;;;21.40;81.90;;;;;;5025755;28;20456;-78
2022/06/21 04:25:33;;;;;;;1.20;0.93;;;21.40;83.10;;;;;;5022295;28;20455;-79
2022/06/21 04:28:11;;;;;;;1.93;1.10;;;21.40;81.60;;;;;;5022433;28;20566;-79
2022/06/21 04:30:47;;;;;;;1.23;1.13;;;21.40;81.70;;;;;;5032828;28;20468;-79
2022/06/21 04:33:23;;;;;;;1.20;0.80;;;21.50;81.40;;;;;;5019750;28;20489;-79
2022/06/21 04:35:55;;;;;;;0.90;0.90;;;21.50;80.50;;;;;;5022839;28;20452;-78
2022/06/21 04:38:28;;;;;;;0.77;0.77;;;21.50;80.40;;;;;;5019204;28;20467;-75
2022/06/21 04:41:01;;;;;;;0.80;0.80;;;21.30;74.60;;;;;;5022896;28;20449;-75
2022/06/21 04:43:34;;;;;;;4.20;1.53;;;21.20;76.70;;;;;;5021197;28;20457;-75
2022/06/21 04:46:08;;;;;;;1.33;0.73;;;21.10;75.90;;;;;;5019400;28;20456;-74
2022/06/21 04:48:42;;;;;;;3.57;1.03;;;21.10;75.80;;;;;;5022898;28;20456;-75
2022/06/21 04:51:15;;;;;;;1.03;0.97;;;21.00;74.80;;;;;;5024327;28;20536;-75
2022/06/21 04:53:51;;;;;;;1.50;1.40;;;21.00;75.90;;;;;;5018819;28;20480;-75
2022/06/21 04:56:29;;;;;;;1.10;1.00;;;21.00;73.70;;;;;;5022979;28;20555;-76
2022/06/21 04:58:58;;;;;;;1.47;1.00;;;20.90;71.90;;;;;;5027576;28;20436;-76
2022/06/21 05:01:30;;;;;;;1.00;0.90;;;21.10;75.30;;;;;;5027305;28;20998;-76
2022/06/21 05:04:01;;;;;;;0.90;0.90;;;21.10;74.40;;;;;;5023047;28;20453;-83
2022/06/21 05:06:29;;;;;;;1.93;1.00;;;21.10;76.20;;;;;;5031735;28;21068;-82
2022/06/21 05:08:58;;;;;;;3.87;1.30;;;21.20;80.90;;;;;;5031238;28;20457;-82
2022/06/21 05:11:31;;;;;;;1.30;1.10;;;21.30;80.60;;;;;;5030711;28;20494;-82
2022/06/21 05:14:00;;;;;;;1.13;1.03;;;21.40;79.60;;;;;;5027551;28;20472;-82
2022/06/21 05:16:35;;;;;;;1.20;1.10;;;21.40;82.80;;;;;;5027285;28;20481;-82
2022/06/21 05:19:15;;;;;;;1.87;1.10;;;21.40;79.60;;;;;;5028323;28;22472;-83
2022/06/21 05:21:48;;;;;;;1.20;1.00;;;21.50;82.30;;;;;;5031312;28;20971;-83
2022/06/21 05:24:16;;;;;;;1.30;0.93;;;21.40;82.90;;;;;;5032345;28;20440;-82
2022/06/21 05:26:52;;;;;;;2.07;1.20;;;21.40;85.80;;;;;;5033199;28;20486;-81
2022/06/21 05:29:28;;;;;;;1.37;1.27;;;21.50;85.80;;;;;;5030431;28;20439;-82
2022/06/21 05:32:01;;;;;;;2.10;1.10;;;21.40;87.10;;;;;;5028231;28;21004;-82
2022/06/21 05:34:34;;;;;;;1.67;1.20;;;21.50;90.10;;;;;;5029030;28;20491;-81
2022/06/21 05:37:06;;;;;;;1.00;1.00;;;21.40;90.10;;;;;;5025337;28;20477;-82
2022/06/21 05:39:40;;;;;;;1.63;1.20;;;21.40;90.90;;;;;;5030701;28;20456;-82
2022/06/21 05:42:13;;;;;;;1.50;1.40;;;21.50;91.10;;;;;;5024388;28;20468;-81
2022/06/21 05:44:47;;;;;;;1.30;1.20;;;21.50;92.40;;;;;;5027600;28;21015;-83
2022/06/21 05:47:21;;;;;;;2.87;1.20;;;21.50;92.30;;;;;;5023493;28;20475;-81
2022/06/21 05:49:51;;;;;;;1.27;1.10;;;21.40;92.20;;;;;;5030972;28;20530;-82
2022/06/21 05:52:24;;;;;;;1.43;1.27;;;21.50;93.60;;;;;;5030763;28;20459;-82
2022/06/21 05:54:57;;;;;;;1.20;1.00;;;21.30;93.50;;;;;;5033666;28;20565;-81
2022/06/21 05:57:38;;;;;;;1.90;1.30;;;21.60;93.30;;;;;;5027707;28;20469;-81
2022/06/21 06:00:14;;;;;;;1.40;1.20;;;21.20;95.00;;;;;;5030256;28;20489;-81
2022/06/21 06:02:49;;;;;;;1.73;1.10;;;21.30;94.30;;;;;;5035899;28;20531;-81
2022/06/21 06:05:23;;;;;;;1.60;1.30;;;21.30;96.20;;;;;;5040388;28;20455;-82
2022/06/21 06:07:56;;;;;;;1.60;1.30;;;21.20;96.60;;;;;;5027499;28;20464;-82
2022/06/21 06:10:26;;;;;;;1.50;1.37;;;21.30;97.40;;;;;;5029908;28;20860;-82
2022/06/21 06:12:59;;;;;;;1.43;1.30;;;21.40;98.00;;;;;;5029170;28;20460;-82
2022/06/21 06:15:31;;;;;;;3.23;1.83;;;21.50;99.40;;;;;;5026438;28;21051;-82
2022/06/21 06:18:07;;;;;;;3.20;1.40;;;21.40;98.40;;;;;;5027817;28;20503;-82
2022/06/21 06:20:41;;;;;;;1.30;1.20;;;21.40;99.20;;;;;;5023704;28;20452;-81
2022/06/21 06:23:16;;;;;;;1.40;1.30;;;21.40;99.90;;;;;;5022340;28;20456;-82
2022/06/21 06:25:48;;;;;;;1.83;1.43;;;21.50;99.60;;;;;;5028717;28;20452;-81
2022/06/21 06:28:23;;;;;;;3.20;1.33;;;21.60;99.90;;;;;;5026953;28;20563;-82
2022/06/21 06:31:02;;;;;;;1.27;1.10;;;21.60;99.90;;;;;;5025003;28;20451;-82
2022/06/21 06:33:36;;;;;;;1.60;1.50;;;21.70;99.90;;;;;;5024336;28;20476;-79
2022/06/21 06:36:15;;;;;;;1.50;1.40;;;21.70;99.90;;;;;;5024785;28;20548;-80
2022/06/21 06:38:44;;;;;;;1.67;1.40;;;21.80;99.90;;;;;;5025366;28;20547;-79
2022/06/21 06:41:17;;;;;;;1.70;1.30;;;21.90;99.90;;;;;;5022534;28;20483;-79
2022/06/21 06:43:51;;;;;;;1.90;1.80;;;21.90;99.90;;;;;;5023822;28;20457;-79
2022/06/21 06:46:27;;;;;;;1.60;1.50;;;22.00;99.90;;;;;;5019825;28;20479;-80
2022/06/21 06:49:08;;;;;;;1.57;1.30;;;22.00;99.90;;;;;;5026208;28;20471;-80
2022/06/21 06:51:47;;;;;;;1.50;1.40;;;21.90;99.90;;;;;;5023280;28;20456;-79
2022/06/21 06:54:31;;;;;;;2.33;1.60;;;22.00;99.90;;;;;;5023779;28;20480;-80
2022/06/21 06:57:05;;;;;;;1.90;1.60;;;22.00;99.90;;;;;;5020996;28;20488;-80
2022/06/21 06:59:33;;;;;;;4.60;1.57;;;22.10;99.90;;;;;;5022143;28;20462;-79
2022/06/21 07:02:06;;;;;;;1.53;1.43;;;22.10;99.90;;;;;;5026409;28;20449;-79
2022/06/21 07:04:42;;;;;;;1.47;1.37;;;22.10;99.90;;;;;;5024422;28;20539;-79
2022/06/21 07:07:18;;;;;;;1.80;1.70;;;22.20;99.90;;;;;;5025491;28;21008;-79
2022/06/21 07:09:49;;;;;;;1.60;1.20;;;22.30;99.90;;;;;;5024961;28;20454;-80
2022/06/21 07:12:21;;;;;;;2.67;1.50;;;22.40;99.90;;;;;;5024874;28;20501;-79
2022/06/21 07:14:52;;;;;;;1.73;1.60;;;22.30;99.90;;;;;;5025446;28;21417;-79
2022/06/21 07:17:28;;;;;;;1.40;1.30;;;22.50;99.90;;;;;;5022993;28;20484;-79
2022/06/21 07:19:58;;;;;;;1.60;1.40;;;22.50;99.90;;;;;;5027280;28;20456;-79
2022/06/21 07:22:33;;;;;;;1.40;1.30;;;22.60;99.90;;;;;;5024432;28;20838;-80
2022/06/21 07:25:07;;;;;;;1.20;1.10;;;22.60;99.90;;;;;;5023651;28;20489;-80
2022/06/21 07:27:37;;;;;;;1.80;1.60;;;22.60;99.90;;;;;;5023563;28;20537;-79
2022/06/21 07:30:08;;;;;;;3.17;2.53;;;22.60;99.90;;;;;;5023359;28;20555;-79
2022/06/21 07:32:42;;;;;;;1.60;1.50;;;22.70;99.90;;;;;;5025436;28;20812;-80
2022/06/21 07:35:16;;;;;;;1.70;1.60;;;22.70;99.90;;;;;;5023519;28;20495;-79
2022/06/21 07:37:50;;;;;;;1.57;1.13;;;22.70;99.90;;;;;;5026368;28;20530;-80
2022/06/21 07:40:25;;;;;;;2.63;1.70;;;22.80;99.90;;;;;;5023538;28;20470;-80
2022/06/21 07:42:59;;;;;;;3.03;1.90;;;22.80;99.90;;;;;;5024290;28;20456;-79
2022/06/21 07:45:33;;;;;;;5.20;1.60;;;22.80;99.90;;;;;;5023827;28;20476;-80
2022/06/21 07:48:06;;;;;;;3.67;1.80;;;22.80;99.90;;;;;;5023980;28;20468;-80
2022/06/21 07:50:40;;;;;;;1.80;1.40;;;22.80;99.90;;;;;;5025009;28;20476;-80
2022/06/21 07:53:15;;;;;;;2.23;1.47;;;22.70;97.40;;;;;;5024124;28;21190;-80
2022/06/21 07:55:48;;;;;;;2.07;1.40;;;22.60;96.40;;;;;;5024701;28;20475;-79
2022/06/21 07:58:21;;;;;;;1.70;1.50;;;22.70;99.60;;;;;;5021820;28;21825;-80
2022/06/21 08:06:43;;;;;;;1.77;1.50;;;22.70;96.80;;;;;;5027084;28;20578;-79
2022/06/21 08:09:26;;;;;;;1.47;1.37;;;22.60;95.30;;;;;;5024678;28;20466;-79
2022/06/21 08:12:00;;;;;;;2.47;1.60;;;22.70;95.50;;;;;;5021002;28;20461;-79
2022/06/21 08:14:31;;;;;;;1.40;1.20;;;22.70;96.80;;;;;;5024560;28;20483;-79
2022/06/21 08:17:03;;;;;;;1.30;1.20;;;22.70;96.30;;;;;;5020347;28;20586;-79
2022/06/21 08:19:38;;;;;;;1.50;1.40;;;22.60;96.80;;;;;;5018377;28;20464;-79
2022/06/21 08:22:14;;;;;;;1.33;1.23;;;22.60;96.80;;;;;;5023964;28;20447;-79
2022/06/21 08:24:52;;;;;;;3.70;1.40;;;22.70;95.60;;;;;;5029350;28;20452;-79
2022/06/21 08:27:27;;;;;;;1.43;1.30;;;22.60;95.50;;;;;;5026241;28;20487;-79
2022/06/21 08:29:58;;;;;;;1.50;1.40;;;22.70;95.30;;;;;;5061458;28;20486;-79
2022/06/21 08:32:32;;;;;;;1.50;1.30;;;22.60;95.10;;;;;;5025287;28;20455;-79
2022/06/21 08:35:07;;;;;;;1.43;1.33;;;22.50;94.80;;;;;;5024775;28;21347;-79
2022/06/21 08:37:46;;;;;;;1.50;1.40;;;22.60;96.60;;;;;;5024133;28;20490;-83
2022/06/21 08:40:59;;;;;;;1.87;1.30;;;22.60;96.40;;;;;;5026897;28;20463;-84
2022/06/21 08:43:55;;;;;;;1.40;1.30;;;22.50;94.20;;;;;;5026124;28;20460;-83
2022/06/21 08:46:47;;;;;;;1.50;1.40;;;22.60;96.20;;;;;;5015782;28;20488;-83
2022/06/21 08:49:51;;;;;;;1.40;1.30;;;22.80;96.80;;;;;;5029035;28;20453;-83
2022/06/21 08:52:45;;;;;;;3.77;1.50;;;22.80;96.80;;;;;;5016967;28;20456;-83
2022/06/21 08:55:22;;;;;;;2.87;1.43;;;22.80;96.80;;;;;;5031010;28;20526;-83
2022/06/21 08:57:59;;;;;;;1.60;1.50;;;22.80;99.90;;;;;;5028498;28;20471;-84
2022/06/21 09:00:36;;;;;;;2.10;1.37;;;22.90;99.90;;;;;;5025051;28;20449;-83
2022/06/21 09:03:33;;;;;;;3.67;1.50;;;23.00;99.90;;;;;;5030483;28;20467;-83
2022/06/21 09:06:17;;;;;;;1.90;1.40;;;23.00;98.00;;;;;;5031505;28;20451;-84
2022/06/21 09:09:30;;;;;;;2.40;1.43;;;23.00;99.90;;;;;;5028060;28;20468;-83
2022/06/21 09:12:11;;;;;;;3.73;1.40;;;23.10;99.90;;;;;;4988566;28;20472;-83
2022/06/21 09:15:08;;;;;;;2.40;1.37;;;23.10;98.40;;;;;;5027745;28;20464;-85
2022/06/21 09:17:49;;;;;;;2.87;1.37;;;23.10;99.20;;;;;;5058266;28;20472;-84
2022/06/21 09:20:27;;;;;;;3.50;1.53;;;23.10;99.00;;;;;;5029835;28;20455;-83
2022/06/21 09:23:28;;;;;;;1.50;1.30;;;23.20;99.60;;;;;;5046596;28;20552;-83
2022/06/21 09:26:07;;;;;;;1.20;1.10;;;23.30;99.10;;;;;;5031451;28;20979;-84
2022/06/21 09:28:41;;;;;;;1.50;1.40;;;23.30;99.00;;;;;;5029776;28;20480;-83
2022/06/21 09:31:16;;;;;;;2.53;1.30;;;23.40;99.90;;;;;;5028237;28;20757;-84
2022/06/21 09:33:50;;;;;;;1.40;1.20;;;23.50;99.90;;;;;;5032144;28;20555;-84
2022/06/21 09:36:26;;;;;;;4.20;1.40;;;23.60;99.90;;;;;;5029446;28;20475;-83
2022/06/21 09:39:10;;;;;;;3.33;1.77;;;23.70;99.90;;;;;;5024649;28;20466;-84
2022/06/21 09:41:51;;;;;;;1.87;1.30;;;23.70;99.90;;;;;;5030126;28;20563;-84
2022/06/21 09:44:27;;;;;;;2.40;1.60;;;23.60;99.90;;;;;;5061845;28;20522;-83
2022/06/21 09:47:03;;;;;;;2.17;1.97;;;23.70;99.90;;;;;;5020393;28;20480;-84
2022/06/21 09:49:43;;;;;;;1.73;1.40;;;23.80;99.90;;;;;;5030427;28;20455;-85
2022/06/21 09:52:22;;;;;;;1.67;1.57;;;23.80;99.90;;;;;;5028743;28;20487;-84
2022/06/21 09:55:01;;;;;;;2.40;2.00;;;23.80;99.90;;;;;;5030394;28;20447;-84
2022/06/21 09:57:40;;;;;;;2.47;1.90;;;23.90;99.90;;;;;;5034036;28;20506;-84
2022/06/21 10:00:13;;;;;;;1.63;1.50;;;23.90;99.90;;;;;;5027755;28;20448;-85
2022/06/21 10:02:54;;;;;;;3.37;2.00;;;23.80;99.90;;;;;;5029961;28;20907;-85
2022/06/21 10:05:31;;;;;;;3.73;1.83;;;23.90;99.90;;;;;;5025433;28;20456;-84
2022/06/21 10:08:15;;;;;;;2.70;1.57;;;23.90;99.90;;;;;;5038604;28;20471;-85
2022/06/21 10:11:01;;;;;;;4.93;1.90;;;24.00;99.90;;;;;;5028559;28;20470;-85
2022/06/21 10:13:58;;;;;;;3.53;2.13;;;24.10;99.90;;;;;;5032113;28;20450;-84
2022/06/21 10:16:59;;;;;;;1.80;1.70;;;24.00;99.90;;;;;;5031480;28;20484;-84
2022/06/21 10:19:40;;;;;;;2.23;1.80;;;24.00;99.90;;;;;;5027963;28;20475;-85
2022/06/21 10:22:28;;;;;;;2.90;1.60;;;24.00;99.90;;;;;;5022146;28;20507;-85
2022/06/21 10:25:19;;;;;;;2.33;2.13;;;24.00;99.90;;;;;;5032980;28;20488;-85
2022/06/21 10:28:12;;;;;;;2.50;2.00;;;24.10;99.90;;;;;;5033273;28;20471;-85
2022/06/21 10:31:03;;;;;;;2.60;2.23;;;24.10;99.90;;;;;;5022384;28;20457;-85
2022/06/21 10:34:09;;;;;;;3.90;1.93;;;24.20;99.90;;;;;;5024251;28;20456;-85
2022/06/21 10:36:52;;;;;;;2.67;1.80;;;24.30;99.90;;;;;;5010957;28;21007;-86
2022/06/21 10:39:39;;;;;;;2.30;1.80;;;24.40;99.90;;;;;;5028577;28;20440;-85
2022/06/21 10:45:49;;;;;;;1.60;1.50;;;24.40;99.90;;;;;;5021736;28;20448;-85
2022/06/21 10:48:50;;;;;;;1.70;1.60;;;24.40;99.90;;;;;;5022688;28;20453;-84
2022/06/21 10:51:28;;;;;;;1.80;1.70;;;24.50;99.90;;;;;;5026455;28;20445;-84
2022/06/21 10:54:23;;;;;;;1.80;1.57;;;24.60;99.90;;;;;;5025811;28;20456;-84
2022/06/21 10:57:12;;;;;;;2.00;1.47;;;24.70;99.90;;;;;;5029158;28;20506;-83
2022/06/21 11:03:22;;;;;;;1.77;1.67;;;24.70;99.90;;;;;;5027817;28;20456;-85
2022/06/21 11:05:59;;;;;;;2.47;1.87;;;24.70;99.90;;;;;;5027029;28;20441;-83
2022/06/21 11:08:35;;;;;;;2.00;1.90;;;24.80;99.90;;;;;;5019002;28;20949;-83
2022/06/21 11:11:08;;;;;;;2.30;2.00;;;24.80;99.90;;;;;;5026872;28;20440;-84
2022/06/21 11:13:42;;;;;;;2.20;1.80;;;24.80;99.90;;;;;;5032229;28;20471;-84
2022/06/21 11:16:17;;;;;;;5.20;2.40;;;24.90;99.90;;;;;;5025666;28;20983;-84
2022/06/21 11:18:56;;;;;;;1.93;1.80;;;25.00;99.90;;;;;;5029058;28;20945;-85
2022/06/21 11:21:41;;;;;;;2.23;1.90;;;25.10;99.90;;;;;;5026201;28;20445;-86
2022/06/21 11:24:24;;;;;;;1.53;1.43;;;25.10;99.90;;;;;;5028193;28;20952;-84
2022/06/21 11:27:03;;;;;;;2.20;2.00;;;25.20;99.90;;;;;;5032195;28;20468;-85
2022/06/21 11:29:40;;;;;;;1.87;1.77;;;25.20;99.90;;;;;;5029042;28;20833;-85
2022/06/21 11:32:22;;;;;;;1.90;1.80;;;25.30;99.90;;;;;;5020601;28;20472;-85
2022/06/21 11:34:59;;;;;;;1.87;1.70;;;25.30;99.90;;;;;;5031986;28;20546;-85
2022/06/21 11:37:40;;;;;;;2.63;1.80;;;25.40;99.90;;;;;;5029099;28;20486;-85
2022/06/21 11:40:40;;;;;;;3.00;2.00;;;25.40;99.90;;;;;;5034294;28;20443;-85
2022/06/21 11:43:35;;;;;;;2.17;1.77;;;25.40;99.90;;;;;;5021057;28;20449;-85
2022/06/21 11:46:14;;;;;;;2.87;1.80;;;25.40;99.90;;;;;;5027678;28;20469;-86
2022/06/21 11:49:35;;;;;;;1.83;1.70;;;25.50;99.90;;;;;;5059302;28;20991;-84
2022/06/21 11:52:44;;;;;;;1.93;1.80;;;25.50;99.90;;;;;;5022875;28;20457;-84
2022/06/21 11:55:26;;;;;;;2.70;2.10;;;25.60;99.90;;;;;;5039798;28;20440;-85
2022/06/21 11:58:06;;;;;;;1.63;1.53;;;25.50;99.90;;;;;;5025525;28;20476;-87
2022/06/21 12:00:44;;;;;;;4.73;2.27;;;25.60;99.90;;;;;;5027951;28;20458;-85
2022/06/21 12:03:20;;;;;;;1.97;1.80;;;25.70;99.90;;;;;;5027854;28;20458;-85
2022/06/21 12:05:54;;;;;;;2.03;1.93;;;25.70;99.90;;;;;;5027616;28;20467;-84
2022/06/21 12:08:50;;;;;;;2.00;1.90;;;25.70;99.90;;;;;;5029778;28;20461;-86
2022/06/21 12:11:26;;;;;;;1.67;1.57;;;25.70;99.90;;;;;;5029816;28;20512;-85
2022/06/21 12:14:12;;;;;;;3.27;2.27;;;25.70;99.90;;;;;;5026491;28;20453;-85
2022/06/21 12:16:50;;;;;;;2.03;1.83;;;25.70;99.90;;;;;;5019588;28;20476;-86
2022/06/21 12:19:23;;;;;;;2.30;1.50;;;25.80;99.90;;;;;;5027214;28;20456;-85
2022/06/21 12:22:03;;;;;;;1.80;1.70;;;25.80;99.90;;;;;;5028610;28;20451;-86
2022/06/21 12:24:31;;;;;;;2.93;2.30;;;25.80;99.90;;;;;;5062875;28;20848;-86
2022/06/21 12:27:02;;;;;;;3.87;2.63;;;25.90;99.90;;;;;;5027008;28;20480;-85
2022/06/21 12:29:31;;;;;;;2.07;1.97;;;25.90;99.90;;;;;;5027978;28;20532;-85
2022/06/21 12:32:02;;;;;;;2.43;2.27;;;25.80;99.90;;;;;;5030321;28;20542;-85
2022/06/21 12:34:36;;;;;;;3.93;2.10;;;25.90;99.90;;;;;;5029991;28;20433;-85
2022/06/21 12:37:07;;;;;;;3.40;2.30;;;25.90;99.90;;;;;;5031336;28;21019;-85
2022/06/21 12:39:40;;;;;;;3.23;2.40;;;25.90;99.90;;;;;;5027474;28;20468;-85
2022/06/21 12:42:45;;;;;;;1.60;1.50;;;25.90;99.90;;;;;;5022715;28;20448;-84
2022/06/21 12:45:37;;;;;;;2.43;1.93;;;25.90;99.90;;;;;;5021045;28;20826;-85
2022/06/21 12:48:22;;;;;;;1.83;1.73;;;25.90;99.90;;;;;;5057955;28;20464;-85
2022/06/21 12:50:59;;;;;;;2.30;1.50;;;26.00;99.90;;;;;;5028115;28;20443;-84
2022/06/21 12:54:12;;;;;;;2.40;2.20;;;26.00;99.90;;;;;;5025739;28;20453;-84
2022/06/21 12:56:57;;;;;;;2.13;1.80;;;26.00;99.90;;;;;;5010536;28;20495;-85
2022/06/21 12:59:46;;;;;;;2.50;1.70;;;26.00;99.90;;;;;;5026077;28;20531;-84
2022/06/21 13:02:38;;;;;;;2.80;1.70;;;26.10;99.90;;;;;;5026741;28;20453;-85
2022/06/21 13:05:34;;;;;;;1.83;1.70;;;26.10;99.90;;;;;;5024641;28;20460;-85
2022/06/21 13:08:30;;;;;;;2.60;2.00;;;26.10;99.90;;;;;;5028347;28;20547;-85
2022/06/21 13:11:14;;;;;;;3.30;1.97;;;26.20;99.90;;;;;;5032819;28;20535;-85
2022/06/21 13:14:02;;;;;;;2.30;2.20;;;26.20;99.90;;;;;;5033758;28;20525;-86
2022/06/21 13:16:46;;;;;;;2.23;2.07;;;26.20;99.90;;;;;;5031210;28;20467;-84
2022/06/21 13:19:37;;;;;;;2.67;2.30;;;26.20;99.90;;;;;;5027701;28;20464;-86
2022/06/21 13:22:31;;;;;;;1.97;1.87;;;26.20;99.90;;;;;;5029657;28;20477;-86
2022/06/21 13:25:14;;;;;;;1.87;1.60;;;26.20;99.90;;;;;;5029266;28;20565;-86
2022/06/21 13:27:53;;;;;;;2.30;2.20;;;26.30;99.90;;;;;;5032028;28;20479;-86
2022/06/21 13:30:37;;;;;;;2.27;1.80;;;26.30;99.90;;;;;;5047645;28;20470;-87
2022/06/21 13:33:14;;;;;;;1.90;1.80;;;26.30;99.90;;;;;;5030335;28;20456;-87
2022/06/21 13:35:54;;;;;;;2.33;2.00;;;26.30;99.90;;;;;;5029322;28;20456;-86
2022/06/21 13:38:29;;;;;;;4.40;2.40;;;26.40;99.90;;;;;;5026464;28;20468;-87
2022/06/21 13:41:05;;;;;;;3.03;1.80;;;26.40;99.90;;;;;;5027299;28;20453;-86
2022/06/21 13:43:38;;;;;;;2.20;2.10;;;26.40;99.90;;;;;;5027129;28;20460;-85
2022/06/21 13:46:19;;;;;;;2.07;1.97;;;26.40;99.90;;;;;;5057457;28;20853;-86
2022/06/21 13:48:53;;;;;;;2.50;2.40;;;26.50;99.90;;;;;;5030514;28;20464;-85
2022/06/21 13:51:34;;;;;;;3.87;2.60;;;26.50;99.90;;;;;;5027002;28;20541;-84